Time;durP1;ratioP1;P1;durP2;ratioP2;P2;SDS_P1;SDS_P2;PMS_P1;PMS_P2;Temp;Humidity;BMP_temperature;BMP_pressure;BME280_temperature;BME280_humidity;BME280_pressure;Samples;Min_cycle;Max_cycle;Signal;HPM_P1;HPM_P2
2021/05/01 00:02:18;;;;;;;26.75;22.73;;;11.20;82.80;;;;;;5091037;28;20228;-67
2021/05/01 00:04:46;;;;;;;29.30;22.60;;;11.20;83.00;;;;;;5090388;28;20628;-68
2021/05/01 00:07:15;;;;;;;29.05;23.90;;;11.20;82.60;;;;;;5085271;28;20188;-66
2021/05/01 00:09:42;;;;;;;25.52;21.75;;;11.10;83.00;;;;;;5091890;28;20262;-68
2021/05/01 00:12:09;;;;;;;27.40;22.95;;;11.10;83.10;;;;;;5085976;28;20185;-66
2021/05/01 00:14:36;;;;;;;25.80;23.02;;;11.10;82.90;;;;;;5072256;28;20194;-66
2021/05/01 00:17:03;;;;;;;25.83;21.13;;;11.10;83.50;;;;;;5077041;28;20177;-66
2021/05/01 00:19:29;;;;;;;27.50;22.65;;;11.10;83.50;;;;;;5091728;28;20196;-67
2021/05/01 00:21:56;;;;;;;27.38;21.77;;;11.10;82.80;;;;;;5072244;28;20205;-67
2021/05/01 00:24:23;;;;;;;27.25;22.50;;;11.10;82.60;;;;;;5081072;28;20576;-67
2021/05/01 00:26:50;;;;;;;27.05;22.90;;;11.10;82.90;;;;;;5092553;28;20689;-67
2021/05/01 00:29:16;;;;;;;29.67;23.90;;;11.10;83.70;;;;;;5084156;28;20193;-67
2021/05/01 00:31:43;;;;;;;26.35;23.50;;;11.10;83.80;;;;;;5072299;28;20217;-66
2021/05/01 00:34:10;;;;;;;27.63;22.08;;;11.20;83.60;;;;;;5078035;28;20234;-66
2021/05/01 00:36:36;;;;;;;28.23;24.20;;;11.20;83.50;;;;;;5092332;28;20221;-66
2021/05/01 00:39:03;;;;;;;26.73;23.80;;;11.20;83.60;;;;;;5087370;28;20601;-66
2021/05/01 00:41:31;;;;;;;26.15;21.90;;;11.20;83.40;;;;;;5072143;28;20190;-67
2021/05/01 00:43:57;;;;;;;28.38;23.83;;;11.20;83.00;;;;;;5074849;28;20608;-66
2021/05/01 00:46:23;;;;;;;25.95;22.40;;;11.20;83.20;;;;;;5091801;28;20189;-66
2021/05/01 00:48:50;;;;;;;26.92;22.10;;;11.10;84.00;;;;;;5085528;28;20648;-67
2021/05/01 00:51:17;;;;;;;24.60;21.55;;;11.20;84.30;;;;;;5072298;28;20286;-66
2021/05/01 00:53:44;;;;;;;27.58;21.90;;;11.20;84.50;;;;;;5076627;28;20189;-67
2021/05/01 00:56:11;;;;;;;28.02;23.33;;;11.20;85.00;;;;;;5092187;28;20189;-66
2021/05/01 00:58:40;;;;;;;28.70;24.50;;;11.20;84.50;;;;;;5088456;28;20196;-67
2021/05/01 01:01:17;;;;;;;28.17;22.38;;;11.10;84.10;;;;;;5071750;28;20220;-67
2021/05/01 01:03:44;;;;;;;28.90;24.25;;;11.00;84.90;;;;;;5075293;28;20253;-67
2021/05/01 01:06:11;;;;;;;28.30;24.70;;;11.00;85.20;;;;;;5092082;28;20185;-67
2021/05/01 01:08:37;;;;;;;30.30;23.83;;;11.00;85.90;;;;;;5089359;28;20232;-66
2021/05/01 01:11:04;;;;;;;25.92;21.63;;;11.00;85.50;;;;;;5071933;28;20198;-67
2021/05/01 01:13:31;;;;;;;27.90;21.05;;;11.10;85.40;;;;;;5086509;28;20200;-66
2021/05/01 01:15:59;;;;;;;26.80;22.85;;;11.00;85.20;;;;;;5091911;28;20208;-67
2021/05/01 01:18:25;;;;;;;26.85;22.45;;;11.00;85.30;;;;;;5091149;28;20193;-66
2021/05/01 01:20:52;;;;;;;28.23;23.55;;;11.00;85.50;;;;;;5079304;28;20251;-66
2021/05/01 01:23:19;;;;;;;32.85;23.15;;;11.00;85.00;;;;;;5072089;28;20193;-67
2021/05/01 01:25:46;;;;;;;31.92;26.00;;;11.00;85.20;;;;;;5082109;28;20221;-67
2021/05/01 01:28:12;;;;;;;25.10;22.23;;;11.00;85.60;;;;;;5090342;28;20757;-67
2021/05/01 01:30:40;;;;;;;28.05;23.75;;;11.00;85.90;;;;;;5082135;28;20186;-67
2021/05/01 01:33:09;;;;;;;31.33;21.63;;;11.00;85.60;;;;;;5081725;28;20716;-67
2021/05/01 01:35:37;;;;;;;26.08;20.92;;;11.00;85.90;;;;;;5083322;28;20182;-66
2021/05/01 01:38:05;;;;;;;26.75;21.85;;;11.00;85.90;;;;;;5071497;28;20224;-66
2021/05/01 01:40:33;;;;;;;28.52;24.73;;;11.00;86.00;;;;;;5078520;28;20223;-66
2021/05/01 01:42:59;;;;;;;25.35;20.25;;;11.00;85.90;;;;;;5092077;28;20225;-66
2021/05/01 01:45:27;;;;;;;25.65;22.00;;;11.00;86.20;;;;;;5085744;28;20217;-66
2021/05/01 01:47:54;;;;;;;26.90;21.38;;;11.10;86.80;;;;;;5071527;28;20185;-71
2021/05/01 01:50:22;;;;;;;25.75;22.13;;;11.10;87.10;;;;;;5075655;28;20190;-67
2021/05/01 01:52:48;;;;;;;28.98;23.08;;;11.10;86.60;;;;;;5091783;28;20258;-67
2021/05/01 01:55:23;;;;;;;30.13;24.15;;;11.10;86.40;;;;;;5088048;28;20182;-66
2021/05/01 01:57:51;;;;;;;33.10;26.60;;;11.00;86.70;;;;;;5071819;28;20182;-67
2021/05/01 02:00:22;;;;;;;27.92;23.35;;;11.00;87.30;;;;;;5076132;28;20185;-68
2021/05/01 02:02:48;;;;;;;31.10;24.55;;;11.00;87.30;;;;;;5075308;28;20221;-67
2021/05/01 02:05:15;;;;;;;25.95;21.25;;;11.00;87.60;;;;;;5076875;28;20217;-66
2021/05/01 02:07:43;;;;;;;29.83;21.50;;;11.00;88.10;;;;;;5095205;28;20232;-67
2021/05/01 02:10:11;;;;;;;28.60;22.90;;;11.10;87.90;;;;;;5075213;28;20194;-67
2021/05/01 02:12:39;;;;;;;30.55;24.33;;;11.10;88.50;;;;;;5075166;28;20190;-66
2021/05/01 02:15:11;;;;;;;29.27;23.98;;;11.20;88.60;;;;;;5093426;28;20647;-67
2021/05/01 02:17:39;;;;;;;27.63;22.73;;;11.20;88.20;;;;;;5095247;28;20218;-66
2021/05/01 02:20:08;;;;;;;32.53;23.00;;;11.20;87.30;;;;;;5076556;28;20212;-66
2021/05/01 02:22:35;;;;;;;27.50;24.08;;;11.20;87.30;;;;;;5074789;28;20197;-66
2021/05/01 02:25:01;;;;;;;27.38;22.85;;;11.20;87.40;;;;;;5091076;28;20691;-67
2021/05/01 02:27:28;;;;;;;32.15;25.50;;;11.20;87.70;;;;;;5095087;28;20193;-67
2021/05/01 02:29:54;;;;;;;27.35;22.73;;;11.20;87.90;;;;;;5079135;28;20186;-66
2021/05/01 02:32:22;;;;;;;28.80;24.30;;;11.20;87.10;;;;;;5074449;28;20194;-67
2021/05/01 02:34:48;;;;;;;29.40;24.92;;;11.20;88.10;;;;;;5088152;28;20181;-68
2021/05/01 02:37:15;;;;;;;31.00;23.23;;;11.20;88.60;;;;;;5083348;28;20703;-67
2021/05/01 02:39:42;;;;;;;25.85;21.98;;;11.20;88.60;;;;;;5074086;28;20196;-68
2021/05/01 02:42:10;;;;;;;25.77;20.95;;;11.30;88.40;;;;;;5083279;28;20185;-66
2021/05/01 02:44:47;;;;;;;28.73;22.70;;;11.30;88.60;;;;;;5094671;28;20221;-67
2021/05/01 02:47:24;;;;;;;31.58;21.83;;;11.30;88.60;;;;;;5084162;28;20257;-67
2021/05/01 02:49:52;;;;;;;30.98;21.80;;;11.30;88.50;;;;;;5074383;28;20683;-67
2021/05/01 02:52:19;;;;;;;26.05;22.67;;;11.30;88.20;;;;;;5083594;28;20193;-66
2021/05/01 02:54:45;;;;;;;24.70;21.60;;;11.30;87.50;;;;;;5094321;28;20189;-66
2021/05/01 02:57:13;;;;;;;30.33;22.95;;;11.30;87.30;;;;;;5085595;28;20679;-67
2021/05/01 02:59:39;;;;;;;27.10;22.45;;;11.20;87.50;;;;;;5073999;28;20201;-72
2021/05/01 03:02:06;;;;;;;24.77;22.00;;;11.20;88.10;;;;;;5080439;28;20185;-66
2021/05/01 03:04:33;;;;;;;23.77;21.13;;;11.30;88.20;;;;;;5089884;28;20213;-67
2021/05/01 03:07:00;;;;;;;25.55;22.15;;;11.30;87.90;;;;;;5073961;28;20200;-67
2021/05/01 03:09:26;;;;;;;27.58;22.77;;;11.30;88.10;;;;;;5081100;28;20208;-66
2021/05/01 03:11:53;;;;;;;26.98;21.80;;;11.20;88.00;;;;;;5093946;28;20555;-67
2021/05/01 03:14:20;;;;;;;28.08;22.67;;;11.20;88.10;;;;;;5087319;28;20185;-67
2021/05/01 03:16:46;;;;;;;29.08;22.77;;;11.20;88.00;;;;;;5073828;28;20194;-67
2021/05/01 03:19:17;;;;;;;29.63;23.45;;;11.10;88.40;;;;;;5078187;28;20197;-66
2021/05/01 03:21:47;;;;;;;32.10;24.05;;;11.10;88.40;;;;;;5093747;28;20648;-67
2021/05/01 03:24:14;;;;;;;28.30;23.02;;;11.10;88.50;;;;;;5089329;28;20552;-67
2021/05/01 03:26:41;;;;;;;27.55;22.48;;;11.10;88.20;;;;;;5073468;28;20599;-67
2021/05/01 03:29:08;;;;;;;27.88;22.30;;;11.10;88.30;;;;;;5076187;28;20208;-67
2021/05/01 03:31:34;;;;;;;26.20;22.10;;;11.10;88.50;;;;;;5093935;28;20220;-67
2021/05/01 03:34:01;;;;;;;26.48;22.55;;;11.10;88.20;;;;;;5078241;28;20272;-67
2021/05/01 03:36:27;;;;;;;29.80;24.45;;;11.10;88.70;;;;;;5073260;28;20225;-66
2021/05/01 03:38:55;;;;;;;28.23;22.48;;;11.10;88.60;;;;;;5086139;28;20181;-67
2021/05/01 03:41:22;;;;;;;27.70;22.77;;;11.10;88.50;;;;;;5093309;28;20192;-66
2021/05/01 03:43:49;;;;;;;29.30;21.83;;;11.20;88.10;;;;;;5080797;28;20186;-67
2021/05/01 03:46:16;;;;;;;29.30;23.65;;;11.10;86.90;;;;;;5072949;28;20196;-67
2021/05/01 03:48:42;;;;;;;28.30;22.70;;;11.10;86.70;;;;;;5083129;28;20259;-67
2021/05/01 03:51:09;;;;;;;27.92;23.40;;;11.10;86.80;;;;;;5093535;28;20197;-67
2021/05/01 03:53:35;;;;;;;27.80;23.05;;;11.10;86.70;;;;;;5083702;28;20243;-66
2021/05/01 03:56:03;;;;;;;29.35;25.30;;;11.20;87.10;;;;;;5072916;28;20201;-67
2021/05/01 03:58:29;;;;;;;31.20;23.98;;;11.20;86.70;;;;;;5080150;28;20222;-67
2021/05/01 04:00:56;;;;;;;29.10;22.90;;;11.10;86.70;;;;;;5088302;28;20193;-66
2021/05/01 04:03:22;;;;;;;35.00;24.25;;;11.10;86.70;;;;;;5073095;28;20190;-66
2021/05/01 04:05:49;;;;;;;29.23;24.27;;;11.20;86.90;;;;;;5075849;28;20575;-66
2021/05/01 04:08:16;;;;;;;31.55;22.35;;;11.10;86.70;;;;;;5093254;28;20242;-67
2021/05/01 04:10:44;;;;;;;28.58;23.20;;;11.10;86.90;;;;;;5091334;28;20189;-67
2021/05/01 04:13:11;;;;;;;29.17;24.33;;;11.00;87.50;;;;;;5072884;28;20289;-66
2021/05/01 04:15:38;;;;;;;28.75;24.20;;;11.10;87.40;;;;;;5073031;28;20259;-67
2021/05/01 04:18:05;;;;;;;31.73;24.27;;;11.00;87.60;;;;;;5092929;28;20189;-67
2021/05/01 04:20:31;;;;;;;27.20;22.20;;;11.10;87.60;;;;;;5092668;28;20532;-67
2021/05/01 04:22:58;;;;;;;31.23;24.58;;;11.10;88.40;;;;;;5073165;28;20186;-66
2021/05/01 04:25:24;;;;;;;30.25;23.60;;;11.10;88.60;;;;;;5072608;28;20221;-67
2021/05/01 04:27:51;;;;;;;30.30;24.35;;;11.10;88.70;;;;;;5089998;28;20181;-67
2021/05/01 04:30:20;;;;;;;27.92;23.33;;;11.10;89.00;;;;;;5078015;28;20228;-69
2021/05/01 04:32:46;;;;;;;27.88;23.50;;;11.20;89.20;;;;;;5072680;28;20216;-66
2021/05/01 04:35:13;;;;;;;31.63;23.65;;;11.20;89.10;;;;;;5085773;28;20181;-67
2021/05/01 04:37:39;;;;;;;26.90;22.90;;;11.20;88.70;;;;;;5092823;28;20212;-66
2021/05/01 04:40:07;;;;;;;30.50;23.35;;;11.30;87.90;;;;;;5080635;28;20194;-67
2021/05/01 04:42:36;;;;;;;35.70;25.58;;;11.20;88.40;;;;;;5072481;28;20191;-66
2021/05/01 04:45:02;;;;;;;31.65;24.25;;;11.20;88.80;;;;;;5082908;28;20220;-67
2021/05/01 04:47:30;;;;;;;30.15;24.35;;;11.30;88.70;;;;;;5092544;28;20234;-66
2021/05/01 04:49:56;;;;;;;31.25;24.70;;;11.30;88.40;;;;;;5082822;28;20177;-67
2021/05/01 04:52:23;;;;;;;29.17;22.92;;;11.30;88.10;;;;;;5072459;28;20190;-66
2021/05/01 04:54:51;;;;;;;30.40;24.00;;;11.30;87.70;;;;;;5080032;28;20250;-67
2021/05/01 04:57:18;;;;;;;31.88;26.33;;;11.30;87.40;;;;;;5087275;28;20193;-66
2021/05/01 04:59:44;;;;;;;30.10;24.63;;;11.40;89.10;;;;;;5072434;28;20197;-66
2021/05/01 05:02:11;;;;;;;29.85;24.90;;;11.40;88.10;;;;;;5075588;28;20192;-68
2021/05/01 05:04:38;;;;;;;32.08;24.17;;;11.40;88.40;;;;;;5092912;28;20229;-66
2021/05/01 05:07:05;;;;;;;27.90;23.65;;;11.50;88.60;;;;;;5089751;28;20196;-67
2021/05/01 05:09:31;;;;;;;34.38;25.88;;;11.50;88.70;;;;;;5072403;28;20193;-67
2021/05/01 05:11:58;;;;;;;31.55;23.92;;;11.50;88.60;;;;;;5072585;28;20201;-67
2021/05/01 05:14:24;;;;;;;29.77;24.88;;;11.50;88.30;;;;;;5092531;28;20185;-67
2021/05/01 05:16:50;;;;;;;31.52;25.23;;;11.50;88.30;;;;;;5092336;28;20189;-67
2021/05/01 05:19:17;;;;;;;26.63;22.05;;;11.60;87.90;;;;;;5072342;28;20640;-67
2021/05/01 05:21:45;;;;;;;27.50;22.67;;;11.60;87.70;;;;;;5072574;28;20192;-67
2021/05/01 05:24:12;;;;;;;27.10;23.08;;;11.60;87.50;;;;;;5089972;28;20208;-68
2021/05/01 05:26:39;;;;;;;33.83;25.83;;;11.70;87.50;;;;;;5076931;28;20251;-67
2021/05/01 05:29:05;;;;;;;29.73;24.63;;;11.70;87.70;;;;;;5072020;28;20657;-66
2021/05/01 05:31:32;;;;;;;29.90;23.63;;;11.70;88.00;;;;;;5085366;28;20531;-66
2021/05/01 05:33:58;;;;;;;27.85;23.60;;;11.80;88.00;;;;;;5095268;28;20189;-67
2021/05/01 05:36:25;;;;;;;27.40;22.48;;;11.80;87.80;;;;;;5075653;28;20699;-67
2021/05/01 05:38:52;;;;;;;26.92;23.30;;;11.80;87.80;;;;;;5075622;28;20201;-67
2021/05/01 05:41:19;;;;;;;28.10;23.77;;;11.90;87.20;;;;;;5094494;28;20185;-67
2021/05/01 05:43:47;;;;;;;28.88;24.30;;;11.90;87.30;;;;;;5095952;28;20193;-67
2021/05/01 05:46:17;;;;;;;32.38;24.70;;;11.90;87.20;;;;;;5088917;28;20200;-67
2021/05/01 05:48:43;;;;;;;26.58;21.98;;;12.00;87.80;;;;;;5095771;28;20241;-67
2021/05/01 05:51:10;;;;;;;29.63;23.75;;;12.00;87.20;;;;;;5079183;28;20204;-67
2021/05/01 05:53:37;;;;;;;28.73;23.25;;;12.10;87.10;;;;;;5080482;28;20189;-67
2021/05/01 05:56:07;;;;;;;28.23;22.13;;;12.30;86.40;;;;;;5095772;28;20558;-67
2021/05/01 05:58:34;;;;;;;26.70;22.13;;;12.50;87.40;;;;;;5090254;28;20836;-67
2021/05/01 06:01:01;;;;;;;28.00;23.50;;;12.60;86.70;;;;;;5075467;28;20864;-68
2021/05/01 06:03:28;;;;;;;26.75;20.70;;;12.70;85.80;;;;;;5078056;28;20674;-67
2021/05/01 06:06:00;;;;;;;28.58;23.20;;;12.80;85.20;;;;;;5095733;28;20221;-67
2021/05/01 06:08:29;;;;;;;30.77;22.42;;;12.90;85.20;;;;;;5093548;28;20193;-67
2021/05/01 06:10:57;;;;;;;28.65;23.52;;;13.00;84.40;;;;;;5095710;28;20193;-67
2021/05/01 06:13:27;;;;;;;30.35;22.65;;;13.10;84.70;;;;;;5092946;28;20551;-67
2021/05/01 06:15:57;;;;;;;28.88;22.95;;;13.10;84.30;;;;;;5075145;28;20193;-66
2021/05/01 06:18:26;;;;;;;27.88;23.85;;;13.20;83.80;;;;;;5075686;28;20190;-68
2021/05/01 06:20:53;;;;;;;25.10;21.83;;;13.10;82.70;;;;;;5095002;28;20193;-67
2021/05/01 06:23:20;;;;;;;27.55;23.40;;;13.10;82.80;;;;;;5080290;28;20259;-69
2021/05/01 06:25:47;;;;;;;26.08;22.40;;;13.20;82.80;;;;;;5075061;28;20672;-67
2021/05/01 06:28:14;;;;;;;26.23;20.95;;;13.20;82.80;;;;;;5088043;28;20188;-67
2021/05/01 06:30:44;;;;;;;27.10;21.80;;;13.20;82.70;;;;;;5095101;28;20197;-67
2021/05/01 06:33:14;;;;;;;23.95;20.00;;;13.30;82.20;;;;;;5082637;28;20194;-67
2021/05/01 06:35:44;;;;;;;25.23;20.42;;;13.30;82.00;;;;;;5074920;28;20190;-69
2021/05/01 06:38:11;;;;;;;23.40;19.58;;;13.30;81.80;;;;;;5086401;28;20228;-68
2021/05/01 06:40:40;;;;;;;26.55;20.50;;;13.30;80.40;;;;;;5094688;28;20193;-67
2021/05/01 06:43:14;;;;;;;23.23;20.73;;;13.40;81.50;;;;;;5080218;28;20209;-67
2021/05/01 06:45:45;;;;;;;25.00;18.10;;;13.50;80.90;;;;;;5074308;28;20304;-66
2021/05/01 06:48:21;;;;;;;21.02;17.75;;;13.60;80.60;;;;;;5088098;28;20193;-67
2021/05/01 06:50:49;;;;;;;19.80;17.38;;;13.60;80.10;;;;;;5094869;28;20750;-67
2021/05/01 06:53:26;;;;;;;18.30;15.02;;;13.70;78.80;;;;;;5080589;28;20182;-67
2021/05/01 06:55:53;;;;;;;16.42;13.55;;;13.70;78.00;;;;;;5074351;28;20193;-67
2021/05/01 06:58:22;;;;;;;17.13;14.02;;;13.80;77.50;;;;;;5094603;28;20193;-67
2021/05/01 07:00:50;;;;;;;12.55;10.13;;;13.90;74.90;;;;;;5094359;28;20189;-67
2021/05/01 07:03:20;;;;;;;12.30;10.05;;;14.00;72.80;;;;;;5093882;28;20185;-67
2021/05/01 07:05:49;;;;;;;12.10;9.45;;;14.00;71.50;;;;;;5094395;28;20217;-67
2021/05/01 07:08:15;;;;;;;14.35;11.45;;;14.10;72.30;;;;;;5075702;28;20648;-67
2021/05/01 07:10:42;;;;;;;13.53;10.57;;;14.20;74.20;;;;;;5083238;28;20198;-67
2021/05/01 07:13:13;;;;;;;15.00;11.37;;;14.30;75.00;;;;;;5074292;28;20815;-67
2021/05/01 07:15:41;;;;;;;13.52;12.05;;;14.40;73.30;;;;;;5081917;28;20447;-67
2021/05/01 07:18:12;;;;;;;14.97;11.47;;;14.50;73.20;;;;;;5094187;28;20280;-67
2021/05/01 07:20:39;;;;;;;12.90;10.40;;;14.60;72.80;;;;;;5086585;28;20444;-67
2021/05/01 07:23:06;;;;;;;14.40;11.67;;;14.70;73.00;;;;;;5073951;28;20926;-67
2021/05/01 07:25:32;;;;;;;14.00;11.80;;;14.80;71.20;;;;;;5090546;28;20479;-67
2021/05/01 07:28:02;;;;;;;14.47;11.77;;;14.90;68.60;;;;;;5094162;28;20439;-67
2021/05/01 07:30:30;;;;;;;14.87;11.53;;;14.80;68.90;;;;;;5077301;28;20440;-67
2021/05/01 07:33:01;;;;;;;14.30;11.83;;;14.80;68.40;;;;;;5073617;28;20432;-67
2021/05/01 07:35:31;;;;;;;14.80;12.27;;;14.80;66.80;;;;;;5088403;28;20427;-67
2021/05/01 07:37:58;;;;;;;14.30;11.87;;;14.60;66.90;;;;;;5091508;28;20554;-67
2021/05/01 07:40:28;;;;;;;15.77;12.50;;;14.50;68.70;;;;;;5073387;28;20446;-67
2021/05/01 07:42:57;;;;;;;13.97;12.47;;;14.50;67.80;;;;;;5073695;28;20865;-69
2021/05/01 07:45:25;;;;;;;16.02;13.45;;;14.40;68.40;;;;;;5093632;28;20490;-67
2021/05/01 07:47:55;;;;;;;17.40;13.87;;;14.40;68.50;;;;;;5093605;28;20205;-69
2021/05/01 07:50:22;;;;;;;17.37;13.60;;;14.40;69.10;;;;;;5073289;28;20439;-67
2021/05/01 07:52:51;;;;;;;16.60;14.90;;;14.30;68.80;;;;;;5073354;28;20464;-67
2021/05/01 07:55:18;;;;;;;17.90;13.10;;;14.30;70.00;;;;;;5072976;28;20845;-67
2021/05/01 07:57:46;;;;;;;15.23;12.43;;;14.40;69.50;;;;;;5074535;28;20934;-69
2021/05/01 08:00:15;;;;;;;15.75;13.57;;;14.50;69.20;;;;;;5093403;28;20435;-68
2021/05/01 08:02:42;;;;;;;15.47;13.47;;;14.60;69.20;;;;;;5079709;28;20193;-67
2021/05/01 08:05:11;;;;;;;16.70;14.27;;;14.60;69.00;;;;;;5072904;28;20491;-67
2021/05/01 08:07:39;;;;;;;16.20;14.30;;;14.70;69.70;;;;;;5086482;28;20445;-67
2021/05/01 08:10:12;;;;;;;14.67;13.13;;;14.90;69.40;;;;;;5091558;28;20443;-65
2021/05/01 08:12:39;;;;;;;14.70;12.90;;;14.90;66.20;;;;;;5088094;28;20439;-66
2021/05/01 08:15:07;;;;;;;17.70;13.83;;;14.90;66.10;;;;;;5091292;28;20489;-65
2021/05/01 08:17:34;;;;;;;13.80;11.77;;;14.70;66.10;;;;;;5087211;28;20443;-65
2021/05/01 08:20:00;;;;;;;16.90;14.73;;;14.60;65.40;;;;;;5091493;28;20434;-65
2021/05/01 08:22:27;;;;;;;17.67;14.70;;;14.50;65.50;;;;;;5090747;28;20488;-65
2021/05/01 08:24:54;;;;;;;16.03;12.90;;;14.30;66.50;;;;;;5091460;28;20547;-65
2021/05/01 08:27:21;;;;;;;16.50;13.07;;;14.20;66.90;;;;;;5090423;28;20445;-66
2021/05/01 08:29:48;;;;;;;16.10;12.80;;;14.30;68.30;;;;;;5091432;28;20446;-66
2021/05/01 08:32:17;;;;;;;14.43;12.57;;;14.30;69.20;;;;;;5089083;28;20579;-66
2021/05/01 08:34:43;;;;;;;14.48;12.63;;;14.50;69.60;;;;;;5091247;28;20473;-65
2021/05/01 08:37:10;;;;;;;15.23;12.70;;;14.50;69.10;;;;;;5089350;28;20642;-65
2021/05/01 08:39:38;;;;;;;14.40;12.00;;;14.60;68.10;;;;;;5091638;28;20450;-66
2021/05/01 08:42:05;;;;;;;16.30;12.90;;;14.80;67.40;;;;;;5087645;28;20949;-65
2021/05/01 08:44:33;;;;;;;13.47;11.80;;;14.80;67.20;;;;;;5091175;28;20528;-65
2021/05/01 08:47:00;;;;;;;14.40;12.07;;;14.80;64.50;;;;;;5087535;28;20439;-65
2021/05/01 08:49:27;;;;;;;12.63;11.30;;;14.80;65.80;;;;;;5091099;28;20584;-65
2021/05/01 08:51:54;;;;;;;12.23;10.70;;;14.70;66.10;;;;;;5090312;28;20832;-65
2021/05/01 08:54:21;;;;;;;13.80;11.53;;;14.70;63.80;;;;;;5091024;28;20432;-65
2021/05/01 08:56:47;;;;;;;16.23;12.00;;;14.60;65.20;;;;;;5090150;28;20431;-66
2021/05/01 08:59:15;;;;;;;13.50;11.73;;;14.60;64.30;;;;;;5091325;28;20914;-66
2021/05/01 09:01:43;;;;;;;15.50;11.63;;;14.50;65.30;;;;;;5089439;28;20438;-66
2021/05/01 09:04:11;;;;;;;12.57;11.27;;;14.40;65.20;;;;;;5090908;28;20443;-65
2021/05/01 09:06:38;;;;;;;13.70;11.53;;;14.40;66.70;;;;;;5089224;28;20436;-66
2021/05/01 09:09:06;;;;;;;14.30;12.50;;;14.50;66.90;;;;;;5092704;28;20438;-69
2021/05/01 09:11:37;;;;;;;15.43;13.00;;;14.60;64.90;;;;;;5090793;28;20463;-66
2021/05/01 09:14:17;;;;;;;15.65;12.35;;;14.60;65.00;;;;;;5094449;28;20443;-66
2021/05/01 09:16:55;;;;;;;15.37;12.50;;;14.60;64.40;;;;;;5090576;28;20227;-66
2021/05/01 09:19:30;;;;;;;16.40;12.83;;;14.60;65.70;;;;;;5093407;28;20551;-66
2021/05/01 09:22:00;;;;;;;13.60;11.50;;;14.70;65.40;;;;;;5091219;28;20971;-66
2021/05/01 09:24:27;;;;;;;15.07;10.90;;;14.70;63.60;;;;;;5093181;28;20862;-66
2021/05/01 09:26:53;;;;;;;15.10;12.57;;;14.70;65.10;;;;;;5093490;28;20462;-66
2021/05/01 09:29:31;;;;;;;15.83;13.30;;;14.80;64.90;;;;;;5094177;28;20523;-68
2021/05/01 09:32:01;;;;;;;15.20;12.10;;;14.90;64.50;;;;;;5092687;28;20532;-70
2021/05/01 09:34:44;;;;;;;14.87;11.30;;;14.90;64.70;;;;;;5093694;28;20438;-66
2021/05/01 09:37:11;;;;;;;12.90;10.40;;;15.00;64.90;;;;;;5092886;28;20538;-67
2021/05/01 09:39:47;;;;;;;12.67;10.77;;;15.10;65.00;;;;;;5093501;28;20975;-67
2021/05/01 09:45:09;;;;;;;14.30;11.40;;;15.20;63.50;;;;;;4764332;26;20513;-73
2021/05/01 09:47:38;;;;;;;14.70;11.83;;;15.20;63.70;;;;;;5073730;28;20428;-73
2021/05/01 09:50:21;;;;;;;14.77;11.23;;;15.20;63.30;;;;;;5074093;28;20487;-73
2021/05/01 09:53:00;;;;;;;11.33;10.17;;;15.30;62.80;;;;;;5074006;28;20485;-73
2021/05/01 09:55:47;;;;;;;11.50;9.80;;;15.40;63.90;;;;;;5073504;28;20440;-74
2021/05/01 09:58:38;;;;;;;11.33;9.57;;;15.40;63.10;;;;;;5073486;28;20440;-73
2021/05/01 10:01:16;;;;;;;13.67;10.43;;;15.50;62.10;;;;;;5073743;28;20490;-73
2021/05/01 10:03:49;;;;;;;13.10;10.80;;;15.60;63.30;;;;;;5073723;28;20475;-73
2021/05/01 10:06:19;;;;;;;10.53;9.07;;;15.70;62.70;;;;;;5073711;28;20587;-73
2021/05/01 10:08:54;;;;;;;10.50;9.40;;;15.70;62.20;;;;;;5073314;28;20523;-75
2021/05/01 10:11:29;;;;;;;11.80;10.00;;;15.70;62.40;;;;;;5069539;28;20977;-73
2021/05/01 10:13:56;;;;;;;12.57;9.90;;;15.70;62.70;;;;;;5073258;28;20447;-74
2021/05/01 10:16:28;;;;;;;12.00;9.17;;;15.80;62.60;;;;;;5073335;28;20443;-75
2021/05/01 10:19:08;;;;;;;9.80;8.80;;;15.90;62.00;;;;;;5072092;28;20865;-75
2021/05/01 10:21:39;;;;;;;9.90;8.77;;;15.90;60.40;;;;;;5073082;28;20538;-75
2021/05/01 10:24:14;;;;;;;10.70;8.60;;;15.90;60.30;;;;;;5072772;28;20440;-74
2021/05/01 10:26:45;;;;;;;9.70;8.63;;;16.00;61.30;;;;;;5073269;28;20563;-75
2021/05/01 10:29:25;;;;;;;9.40;7.80;;;16.00;59.70;;;;;;5072583;28;20436;-74
2021/05/01 10:31:56;;;;;;;9.80;8.40;;;15.90;59.50;;;;;;5073077;28;20443;-76
2021/05/01 10:34:25;;;;;;;9.70;7.87;;;15.90;59.00;;;;;;5069061;28;20432;-75
2021/05/01 10:37:02;;;;;;;8.30;7.03;;;15.80;59.70;;;;;;5073048;28;20483;-74
2021/05/01 10:39:29;;;;;;;9.53;8.40;;;15.80;60.40;;;;;;5071942;28;21033;-75
2021/05/01 10:41:58;;;;;;;8.63;7.50;;;15.70;60.60;;;;;;5073284;28;20505;-75
2021/05/01 10:44:25;;;;;;;9.23;7.03;;;15.60;60.30;;;;;;5062120;28;20893;-74
2021/05/01 10:47:09;;;;;;;10.47;8.80;;;15.50;60.10;;;;;;5052390;28;20519;-75
2021/05/01 10:49:37;;;;;;;8.87;7.00;;;15.40;60.80;;;;;;5050158;28;20935;-75
2021/05/01 10:52:14;;;;;;;10.30;9.17;;;15.30;61.60;;;;;;5051572;28;20436;-75
2021/05/01 10:54:58;;;;;;;8.30;7.43;;;15.30;61.50;;;;;;5051697;28;20494;-75
2021/05/01 10:57:26;;;;;;;10.30;7.90;;;15.20;61.60;;;;;;5046606;28;20437;-75
2021/05/01 11:00:01;;;;;;;9.30;7.40;;;15.10;62.00;;;;;;5051451;28;20453;-75
2021/05/01 11:02:38;;;;;;;9.70;7.30;;;15.10;61.90;;;;;;5051391;28;20490;-74
2021/05/01 11:05:08;;;;;;;7.60;6.50;;;15.10;62.70;;;;;;5048641;28;20484;-74
2021/05/01 11:07:50;;;;;;;8.70;7.80;;;15.10;62.90;;;;;;5052142;28;20512;-74
2021/05/01 11:10:18;;;;;;;8.50;6.70;;;15.10;63.60;;;;;;5051498;28;20920;-74
2021/05/01 11:12:52;;;;;;;8.63;6.23;;;15.20;63.30;;;;;;5052284;28;20437;-74
2021/05/01 11:15:22;;;;;;;15.53;12.80;;;15.20;62.80;;;;;;5051961;28;20447;-75
2021/05/01 11:18:01;;;;;;;15.50;12.60;;;15.20;64.00;;;;;;5051992;28;20787;-74
2021/05/01 11:20:30;;;;;;;19.33;13.80;;;15.20;65.00;;;;;;5051781;28;20447;-74
2021/05/01 11:22:57;;;;;;;20.47;12.87;;;15.30;65.40;;;;;;5052266;28;20448;-74
2021/05/01 11:25:30;;;;;;;16.33;13.70;;;15.30;65.90;;;;;;5051603;28;20545;-74
2021/05/01 11:28:09;;;;;;;15.40;13.17;;;15.20;65.50;;;;;;5047493;28;21004;-74
2021/05/01 11:30:45;;;;;;;16.37;12.80;;;15.20;66.30;;;;;;5050702;28;20429;-74
2021/05/01 11:33:14;;;;;;;13.57;11.43;;;15.20;65.80;;;;;;5048701;28;20444;-73
2021/05/01 11:35:45;;;;;;;18.87;14.17;;;15.20;65.80;;;;;;5049387;28;20455;-74
2021/05/01 11:38:24;;;;;;;14.17;12.07;;;15.10;65.80;;;;;;5051238;28;20882;-74
2021/05/01 11:40:56;;;;;;;15.07;12.90;;;15.10;66.50;;;;;;5047912;28;20464;-75
2021/05/01 11:43:31;;;;;;;15.90;12.93;;;15.10;66.70;;;;;;5048701;28;20494;-75
2021/05/01 11:46:23;;;;;;;14.40;12.40;;;15.10;66.70;;;;;;5060174;28;20583;-74
2021/05/01 11:48:57;;;;;;;14.43;11.60;;;15.00;66.00;;;;;;5067466;28;20857;-75
2021/05/01 11:51:33;;;;;;;16.50;12.90;;;14.90;66.70;;;;;;5070593;28;20439;-74
2021/05/01 11:54:14;;;;;;;14.17;12.00;;;14.90;66.90;;;;;;5064936;28;20478;-74
2021/05/01 11:56:51;;;;;;;14.90;12.17;;;14.70;66.70;;;;;;5052560;28;20437;-74
2021/05/01 11:59:20;;;;;;;14.90;11.33;;;14.70;67.00;;;;;;5055301;28;20428;-74
2021/05/01 12:02:01;;;;;;;18.30;13.50;;;14.60;66.80;;;;;;5053210;28;20437;-75
2021/05/01 12:04:52;;;;;;;18.27;15.30;;;14.60;66.70;;;;;;5068853;28;20968;-74
2021/05/01 12:07:27;;;;;;;17.37;13.10;;;14.60;67.70;;;;;;5069664;28;20524;-74
2021/05/01 12:10:03;;;;;;;17.30;14.13;;;14.60;68.10;;;;;;5069128;28;20918;-74
2021/05/01 12:12:32;;;;;;;15.37;12.70;;;14.60;68.40;;;;;;5069043;28;20440;-74
2021/05/01 12:15:06;;;;;;;17.93;15.37;;;14.60;68.70;;;;;;5067426;28;20456;-73
2021/05/01 12:17:32;;;;;;;17.77;14.30;;;14.60;69.20;;;;;;5066070;28;20464;-74
2021/05/01 12:20:09;;;;;;;18.73;14.00;;;14.60;69.00;;;;;;5055042;28;20476;-74
2021/05/01 12:22:39;;;;;;;20.67;14.00;;;14.60;68.80;;;;;;5058950;28;20452;-74
2021/05/01 12:25:39;;;;;;;19.00;14.40;;;14.50;69.40;;;;;;5059415;28;20830;-73
2021/05/01 12:28:08;;;;;;;18.37;14.77;;;14.50;69.20;;;;;;5059067;28;20567;-75
2021/05/01 12:30:51;;;;;;;20.43;16.03;;;14.50;69.20;;;;;;5067039;28;20432;-74
2021/05/01 12:33:45;;;;;;;17.50;13.70;;;14.40;69.80;;;;;;5065968;28;20853;-73
2021/05/01 12:36:14;;;;;;;25.17;13.77;;;14.50;69.90;;;;;;5066322;28;20451;-76
2021/05/01 12:38:42;;;;;;;19.83;14.70;;;14.40;69.80;;;;;;5069692;28;20464;-75
2021/05/01 12:41:31;;;;;;;20.47;15.63;;;14.40;69.80;;;;;;5069595;28;20482;-74
2021/05/01 12:43:58;;;;;;;17.27;13.60;;;14.40;69.60;;;;;;5049871;28;20827;-74